Time;durP1;ratioP1;P1;durP2;ratioP2;P2;SDS_P1;SDS_P2;PMS_P1;PMS_P2;Temp;Humidity;BMP_temperature;BMP_pressure;BME280_temperature;BME280_humidity;BME280_pressure;Samples;Min_cycle;Max_cycle;Signal;HPM_P1;HPM_P2
2021/12/17 00:01:51;;;;;;;25.40;22.80;;;2.20;99.90;;;;;;5093718;28;20472;-83
2021/12/17 00:04:27;;;;;;;25.23;22.83;;;2.30;99.90;;;;;;5076126;28;20440;-81
2021/12/17 00:06:54;;;;;;;24.63;22.43;;;2.20;99.90;;;;;;5059429;28;20444;-83
2021/12/17 00:09:21;;;;;;;24.10;22.00;;;2.30;99.90;;;;;;5056386;28;20961;-82
2021/12/17 00:11:47;;;;;;;25.70;23.30;;;2.30;99.90;;;;;;5079656;28;20778;-81
2021/12/17 00:14:23;;;;;;;26.20;23.67;;;2.40;99.90;;;;;;5065353;28;20506;-81
2021/12/17 00:16:51;;;;;;;26.07;23.77;;;2.40;99.90;;;;;;5090119;28;20476;-81
2021/12/17 00:19:25;;;;;;;24.87;22.67;;;2.40;99.90;;;;;;5063729;28;20449;-82
2021/12/17 00:46:33;;;;;;;25.40;22.97;;;2.70;99.90;;;;;;5092956;28;20483;-81
2021/12/17 00:50:02;;;;;;;25.93;23.43;;;2.60;99.90;;;;;;5055278;28;20517;-81
2021/12/17 00:52:33;;;;;;;26.00;23.50;;;2.60;99.90;;;;;;5080961;28;20507;-81
2021/12/17 00:55:00;;;;;;;26.40;23.83;;;2.60;99.90;;;;;;5054322;28;20496;-82
2021/12/17 00:57:34;;;;;;;26.33;23.73;;;2.60;99.90;;;;;;5060757;28;20538;-81
2021/12/17 01:00:01;;;;;;;26.63;24.00;;;2.60;99.90;;;;;;5061747;28;20818;-81
2021/12/17 01:02:31;;;;;;;24.57;22.27;;;2.70;99.90;;;;;;5053634;28;20640;-81
2021/12/17 01:05:09;;;;;;;24.90;22.57;;;2.70;99.90;;;;;;5059296;28;20506;-81
2021/12/17 01:07:39;;;;;;;27.50;24.73;;;2.80;99.90;;;;;;5057682;28;20441;-81
2021/12/17 01:10:12;;;;;;;27.17;24.43;;;2.80;99.90;;;;;;5056301;28;20456;-82
2021/12/17 01:12:51;;;;;;;28.77;25.77;;;2.90;99.90;;;;;;5086528;28;20305;-82
2021/12/17 01:15:43;;;;;;;27.10;24.50;;;2.90;99.90;;;;;;5067708;28;20556;-81
2021/12/17 01:18:20;;;;;;;26.50;24.10;;;2.80;99.90;;;;;;5054421;28;20467;-81
2021/12/17 01:24:12;;;;;;;25.53;23.30;;;2.90;99.90;;;;;;5052019;28;20198;-81
2021/12/17 01:35:56;;;;;;;26.83;24.23;;;3.00;99.90;;;;;;5052114;28;20826;-81
2021/12/17 01:39:30;;;;;;;26.33;23.83;;;3.00;99.90;;;;;;5060885;28;20241;-81
2021/12/17 01:42:03;;;;;;;26.93;24.27;;;3.10;99.90;;;;;;5052509;28;20219;-81
2021/12/17 01:44:30;;;;;;;27.90;25.03;;;3.10;99.90;;;;;;5071628;28;20216;-81
2021/12/17 01:46:57;;;;;;;27.10;24.27;;;3.10;99.90;;;;;;5062703;28;20615;-81
2021/12/17 01:55:46;;;;;;;28.87;25.70;;;3.10;99.90;;;;;;5055274;28;20539;-81
2021/12/17 02:00:43;;;;;;;27.20;24.33;;;3.00;99.90;;;;;;5083888;28;20457;-81
2021/12/17 02:03:11;;;;;;;28.03;25.30;;;3.10;99.90;;;;;;5047768;28;20199;-81
2021/12/17 02:05:38;;;;;;;27.33;24.63;;;3.10;99.90;;;;;;5088556;28;20443;-81
2021/12/17 02:08:07;;;;;;;27.53;24.77;;;3.10;99.90;;;;;;5053830;28;20187;-81
2021/12/17 02:11:12;;;;;;;28.40;25.60;;;3.10;99.90;;;;;;5080800;28;20266;-81
2021/12/17 02:22:13;;;;;;;28.17;25.17;;;3.20;99.90;;;;;;5044291;28;20701;-81
2021/12/17 02:32:57;;;;;;;27.23;24.60;;;3.20;99.90;;;;;;5024703;28;20257;-76
2021/12/17 02:35:32;;;;;;;27.80;25.17;;;3.30;99.90;;;;;;5027110;28;20463;-75
2021/12/17 02:38:02;;;;;;;26.60;23.97;;;3.30;99.90;;;;;;5025942;28;20204;-75
2021/12/17 02:46:23;;;;;;;25.73;23.10;;;3.40;99.90;;;;;;5029983;28;20449;-76
2021/12/17 02:48:51;;;;;;;26.03;23.50;;;3.40;99.90;;;;;;5029988;28;20637;-75
2021/12/17 02:51:21;;;;;;;25.40;22.63;;;3.40;99.90;;;;;;5027098;28;20299;-76
2021/12/17 02:53:50;;;;;;;25.27;22.87;;;3.40;99.90;;;;;;5029453;28;20251;-76
2021/12/17 02:56:17;;;;;;;26.40;23.77;;;3.40;99.90;;;;;;5028613;28;20246;-76
2021/12/17 02:58:45;;;;;;;25.40;22.83;;;3.40;99.90;;;;;;5021644;28;20230;-76
2021/12/17 03:01:13;;;;;;;25.57;23.07;;;3.30;99.90;;;;;;5027437;28;20618;-76
2021/12/17 03:03:41;;;;;;;24.77;22.50;;;3.30;99.90;;;;;;5021787;28;20216;-76
2021/12/17 03:06:08;;;;;;;25.33;22.77;;;3.40;99.90;;;;;;5030331;28;20198;-75
2021/12/17 03:08:35;;;;;;;25.77;23.13;;;3.30;99.90;;;;;;5029141;28;20289;-76
2021/12/17 03:11:04;;;;;;;25.47;22.93;;;3.30;99.90;;;;;;5022955;28;20185;-75
2021/12/17 03:13:34;;;;;;;26.77;24.13;;;3.30;99.90;;;;;;5029120;28;20200;-76
2021/12/17 03:16:07;;;;;;;26.83;24.07;;;3.30;99.90;;;;;;5029481;28;20257;-75
2021/12/17 03:24:07;;;;;;;25.37;23.07;;;3.40;99.90;;;;;;5031909;28;20434;-75
2021/12/17 03:26:35;;;;;;;28.20;25.40;;;3.40;99.90;;;;;;5033011;28;20250;-75
2021/12/17 03:29:06;;;;;;;27.23;24.53;;;3.40;99.90;;;;;;5028787;28;20222;-75
2021/12/17 03:31:33;;;;;;;26.07;23.57;;;3.40;99.90;;;;;;5027344;28;20438;-75
2021/12/17 03:34:16;;;;;;;27.03;24.27;;;3.50;99.90;;;;;;5031095;28;20450;-76
2021/12/17 03:36:45;;;;;;;27.23;24.47;;;3.40;99.90;;;;;;5018826;28;20442;-75
2021/12/17 03:39:12;;;;;;;27.20;24.60;;;3.50;99.90;;;;;;5032868;28;20516;-76
2021/12/17 03:41:47;;;;;;;26.03;23.30;;;3.50;99.90;;;;;;5032716;28;20712;-77
2021/12/17 03:44:15;;;;;;;27.77;24.93;;;3.50;99.90;;;;;;5035659;28;20446;-78
2021/12/17 03:47:17;;;;;;;25.93;23.53;;;3.40;99.90;;;;;;4992073;28;20199;-77
2021/12/17 03:50:02;;;;;;;28.90;25.90;;;3.50;99.90;;;;;;5032688;28;20306;-79
2021/12/17 03:52:30;;;;;;;25.43;22.80;;;3.40;99.90;;;;;;5033889;28;20227;-81
2021/12/17 03:54:57;;;;;;;26.47;23.73;;;3.40;99.90;;;;;;5033220;28;20736;-78
2021/12/17 03:57:27;;;;;;;26.83;24.27;;;3.50;99.90;;;;;;5031227;28;20211;-78
2021/12/17 03:59:55;;;;;;;26.93;24.30;;;3.40;99.90;;;;;;5032990;28;20223;-78
2021/12/17 04:02:25;;;;;;;26.00;23.40;;;3.40;99.90;;;;;;5032841;28;20228;-78
2021/12/17 04:04:52;;;;;;;27.47;24.67;;;3.40;99.90;;;;;;5029747;28;20192;-78
2021/12/17 04:07:46;;;;;;;27.40;24.80;;;3.40;99.90;;;;;;5025658;28;20226;-78
2021/12/17 04:10:40;;;;;;;26.53;24.03;;;3.50;99.90;;;;;;5026455;28;20203;-76
2021/12/17 04:13:24;;;;;;;27.20;24.60;;;3.50;99.90;;;;;;5027698;28;20202;-77
2021/12/17 04:15:59;;;;;;;26.27;23.83;;;3.50;99.90;;;;;;5028288;28;20204;-78
2021/12/17 04:18:26;;;;;;;25.63;23.17;;;3.50;99.90;;;;;;5029108;28;20219;-80
2021/12/17 04:20:54;;;;;;;26.13;23.50;;;3.60;99.90;;;;;;5028048;28;20318;-80
2021/12/17 04:23:21;;;;;;;25.47;23.10;;;3.60;99.90;;;;;;5032949;28;20202;-80
2021/12/17 04:25:49;;;;;;;26.27;23.73;;;3.60;99.90;;;;;;5030232;28;20241;-80
2021/12/17 04:28:19;;;;;;;25.47;23.07;;;3.60;99.90;;;;;;5031967;28;20291;-80
2021/12/17 04:30:48;;;;;;;27.70;25.10;;;3.60;99.90;;;;;;5024152;28;20246;-78
2021/12/17 04:33:15;;;;;;;26.40;24.00;;;3.60;99.90;;;;;;5022042;28;20204;-78
2021/12/17 04:35:42;;;;;;;26.87;24.27;;;3.60;99.90;;;;;;5025162;28;20195;-79
2021/12/17 04:38:12;;;;;;;25.93;23.43;;;3.60;99.90;;;;;;5022837;28;20219;-79
2021/12/17 04:40:48;;;;;;;25.97;23.40;;;3.60;99.90;;;;;;5031975;28;20269;-78
2021/12/17 04:43:22;;;;;;;25.33;22.87;;;3.60;99.90;;;;;;5030201;28;20195;-79
2021/12/17 04:46:00;;;;;;;26.70;24.00;;;3.60;99.90;;;;;;5031964;28;20206;-77
2021/12/17 04:59:40;;;;;;;25.77;23.37;;;3.70;99.90;;;;;;5040200;28;20450;-76
2021/12/17 05:02:08;;;;;;;26.83;24.17;;;3.70;99.90;;;;;;5030025;28;20199;-77
2021/12/17 05:04:44;;;;;;;26.60;24.17;;;3.70;99.90;;;;;;5030388;28;20218;-76
2021/12/17 05:07:14;;;;;;;26.40;24.00;;;3.70;99.90;;;;;;5029655;28;20188;-76
2021/12/17 05:09:50;;;;;;;25.97;23.67;;;3.80;99.90;;;;;;5029519;28;20274;-77
2021/12/17 05:20:44;;;;;;;26.13;23.80;;;3.80;99.90;;;;;;5029295;28;20583;-76
2021/12/17 05:23:11;;;;;;;27.23;24.43;;;3.80;99.90;;;;;;5021531;28;20203;-76
2021/12/17 05:25:38;;;;;;;26.13;23.80;;;3.80;99.90;;;;;;5024314;28;20268;-77
2021/12/17 05:28:05;;;;;;;25.90;23.60;;;3.80;99.90;;;;;;5030384;28;20196;-76
2021/12/17 05:30:40;;;;;;;28.97;25.97;;;3.90;99.90;;;;;;5022699;28;20212;-76
2021/12/17 05:33:08;;;;;;;25.90;23.40;;;3.80;99.90;;;;;;5022631;28;20191;-77
2021/12/17 05:35:36;;;;;;;25.33;22.83;;;3.80;99.90;;;;;;5026304;28;20696;-77
2021/12/17 05:38:06;;;;;;;25.87;23.47;;;3.80;99.90;;;;;;5043864;28;20223;-77
2021/12/17 05:40:33;;;;;;;26.77;24.30;;;3.80;99.90;;;;;;5027227;28;20278;-77
2021/12/17 05:43:02;;;;;;;26.80;24.20;;;3.80;99.90;;;;;;5043579;28;20201;-77
2021/12/17 05:45:47;;;;;;;25.87;23.47;;;3.70;99.90;;;;;;5029197;28;20191;-76
2021/12/17 05:48:16;;;;;;;25.63;23.33;;;3.70;99.90;;;;;;5029991;28;20222;-76
2021/12/17 05:50:45;;;;;;;28.07;25.13;;;3.70;99.90;;;;;;5021113;28;20502;-77
2021/12/17 05:53:12;;;;;;;25.03;22.73;;;3.60;99.90;;;;;;5029447;28;20457;-76
2021/12/17 05:55:39;;;;;;;25.73;23.23;;;3.60;99.90;;;;;;5030347;28;20203;-76
2021/12/17 05:58:07;;;;;;;28.70;25.77;;;3.50;99.90;;;;;;5029214;28;20982;-77
2021/12/17 06:00:35;;;;;;;26.63;24.10;;;3.50;99.90;;;;;;5026587;28;20538;-76
2021/12/17 06:03:23;;;;;;;25.97;23.57;;;3.50;99.90;;;;;;5023357;28;20307;-76
2021/12/17 06:06:02;;;;;;;28.27;25.33;;;3.50;99.90;;;;;;5027257;28;20195;-76
2021/12/17 06:08:28;;;;;;;26.37;23.87;;;3.40;99.90;;;;;;5022539;28;20212;-76
2021/12/17 06:10:57;;;;;;;26.10;23.70;;;3.40;99.90;;;;;;5022145;28;20541;-76
2021/12/17 06:13:25;;;;;;;28.40;25.47;;;3.40;99.90;;;;;;5027156;28;20890;-76
2021/12/17 06:15:52;;;;;;;27.10;24.30;;;3.30;99.90;;;;;;5017356;28;20202;-76
2021/12/17 06:18:19;;;;;;;28.47;25.60;;;3.30;99.90;;;;;;5019296;28;20219;-76
2021/12/17 06:20:47;;;;;;;28.00;25.30;;;3.30;99.90;;;;;;5026839;28;20661;-75
2021/12/17 06:23:14;;;;;;;27.57;24.90;;;3.20;99.90;;;;;;5021945;28;20192;-76
2021/12/17 06:25:41;;;;;;;27.40;24.73;;;3.20;99.90;;;;;;5030034;28;20650;-76
2021/12/17 06:28:08;;;;;;;27.53;24.83;;;3.10;99.90;;;;;;5029629;28;20202;-76
2021/12/17 06:30:35;;;;;;;29.33;25.77;;;3.10;99.90;;;;;;5023616;28;20295;-76
2021/12/17 06:33:04;;;;;;;28.60;25.63;;;3.00;99.90;;;;;;5021263;28;20447;-77
2021/12/17 06:35:33;;;;;;;29.13;25.93;;;3.00;99.90;;;;;;5026056;28;20724;-78
2021/12/17 06:38:04;;;;;;;27.70;25.03;;;3.00;99.90;;;;;;5023515;28;20485;-77
2021/12/17 06:40:37;;;;;;;28.97;26.17;;;2.90;99.90;;;;;;5028752;28;20290;-78
2021/12/17 06:43:04;;;;;;;29.27;26.27;;;2.90;99.90;;;;;;5029933;28;20283;-77
2021/12/17 06:45:51;;;;;;;29.97;27.10;;;2.80;99.90;;;;;;5030428;28;20453;-75
2021/12/17 06:48:22;;;;;;;28.40;25.60;;;2.80;99.90;;;;;;5026918;28;20450;-78
2021/12/17 07:00:12;;;;;;;27.50;24.67;;;2.70;99.90;;;;;;5016851;28;20492;-77
2021/12/17 07:06:36;;;;;;;28.97;26.07;;;2.50;99.90;;;;;;5034429;28;20592;-77
2021/12/17 07:10:00;;;;;;;29.07;26.10;;;2.40;99.90;;;;;;5035521;28;20526;-78
2021/12/17 07:18:25;;;;;;;27.60;25.00;;;2.30;99.90;;;;;;5033594;28;20886;-78
2021/12/17 07:21:06;;;;;;;28.90;26.17;;;2.20;99.90;;;;;;5034020;28;20297;-77
2021/12/17 07:40:29;;;;;;;26.30;23.90;;;2.00;99.90;;;;;;5031272;28;20870;-77
2021/12/17 07:43:02;;;;;;;29.57;26.47;;;2.00;99.90;;;;;;5033028;28;20454;-77
2021/12/17 07:45:41;;;;;;;30.07;27.07;;;2.00;99.90;;;;;;5031073;28;20445;-77
2021/12/17 07:48:16;;;;;;;29.93;26.83;;;2.00;99.90;;;;;;5030302;28;20765;-78
2021/12/17 07:50:54;;;;;;;30.37;27.17;;;2.10;99.90;;;;;;5025304;28;20865;-78
2021/12/17 07:53:40;;;;;;;30.90;27.67;;;2.10;99.90;;;;;;5026510;28;20956;-77
2021/12/17 07:56:17;;;;;;;29.67;26.70;;;2.00;99.90;;;;;;5031216;28;20496;-78
2021/12/17 07:58:46;;;;;;;31.13;27.80;;;2.00;99.90;;;;;;5029998;28;20478;-77
2021/12/17 08:01:14;;;;;;;28.17;25.27;;;2.00;99.90;;;;;;5024603;28;20450;-77
2021/12/17 08:03:44;;;;;;;32.30;27.03;;;2.00;99.90;;;;;;5024711;28;20460;-77
2021/12/17 08:06:35;;;;;;;30.57;27.27;;;2.00;99.90;;;;;;5025723;28;20600;-77
2021/12/17 08:09:12;;;;;;;30.13;26.87;;;2.10;99.90;;;;;;5024407;28;20458;-77
2021/12/17 08:11:41;;;;;;;32.53;29.10;;;2.30;99.90;;;;;;5024904;28;20447;-77
2021/12/17 08:14:16;;;;;;;32.37;28.73;;;2.70;99.90;;;;;;5032692;28;20458;-78
2021/12/17 08:16:50;;;;;;;29.67;26.53;;;3.00;99.90;;;;;;5032357;28;20453;-78
2021/12/17 08:24:57;;;;;;;25.63;23.10;;;3.60;99.90;;;;;;5032935;28;20246;-77
2021/12/17 08:27:43;;;;;;;26.40;23.70;;;3.80;99.90;;;;;;5020498;28;20755;-78
2021/12/17 08:33:06;;;;;;;26.87;24.27;;;4.20;99.90;;;;;;5021500;28;20195;-79
2021/12/17 08:35:33;;;;;;;28.40;25.50;;;4.40;99.90;;;;;;5020105;28;20676;-78
2021/12/17 08:38:07;;;;;;;26.60;24.00;;;4.60;99.90;;;;;;5025804;28;20204;-78
2021/12/17 08:40:35;;;;;;;25.33;22.53;;;4.80;99.90;;;;;;5023975;28;20196;-78
2021/12/17 08:43:03;;;;;;;24.40;21.97;;;5.10;99.90;;;;;;5024237;28;20657;-78
2021/12/17 08:45:35;;;;;;;24.87;22.50;;;5.30;99.90;;;;;;5028630;28;20198;-79
2021/12/17 08:48:20;;;;;;;26.47;24.07;;;5.50;99.90;;;;;;5024987;28;20286;-78
2021/12/17 08:51:08;;;;;;;26.20;23.90;;;5.60;99.90;;;;;;5033040;28;20251;-78
2021/12/17 08:53:37;;;;;;;16.07;12.83;;;5.60;99.90;;;;;;5027812;28;20208;-79
2021/12/17 08:56:05;;;;;;;17.30;12.67;;;5.50;99.90;;;;;;5045348;28;20709;-79
2021/12/17 08:58:32;;;;;;;23.43;21.13;;;5.50;99.90;;;;;;5028100;28;20213;-79
2021/12/17 09:01:03;;;;;;;23.43;21.33;;;5.50;99.90;;;;;;5031990;28;20189;-78
2021/12/17 09:03:30;;;;;;;24.23;22.17;;;5.60;99.90;;;;;;5029977;28;20196;-79
2021/12/17 09:06:12;;;;;;;24.33;22.27;;;5.70;99.90;;;;;;5022108;28;20657;-79
2021/12/17 09:08:48;;;;;;;23.93;21.93;;;5.60;99.90;;;;;;5029009;28;20266;-77
2021/12/17 09:11:15;;;;;;;22.97;20.87;;;5.60;99.90;;;;;;5021460;28;20200;-76
2021/12/17 09:13:51;;;;;;;25.00;22.63;;;5.50;99.90;;;;;;5026340;28;20199;-79
2021/12/17 09:16:21;;;;;;;24.43;22.33;;;5.50;99.90;;;;;;5030098;28;20283;-78
2021/12/17 09:18:49;;;;;;;24.23;21.97;;;5.50;99.90;;;;;;5024166;28;20217;-79
2021/12/17 09:21:36;;;;;;;23.63;21.43;;;5.50;99.90;;;;;;5023598;28;20204;-78
2021/12/17 09:24:08;;;;;;;23.60;21.47;;;5.40;99.90;;;;;;5028323;28;20257;-77
2021/12/17 09:26:56;;;;;;;25.40;23.00;;;5.30;99.90;;;;;;5030331;28;20232;-77
2021/12/17 09:29:29;;;;;;;24.70;22.33;;;5.30;99.90;;;;;;5031548;28;20310;-78
2021/12/17 09:31:57;;;;;;;24.03;21.80;;;5.30;99.90;;;;;;5024356;28;20274;-79
2021/12/17 09:34:24;;;;;;;24.73;22.53;;;5.30;99.90;;;;;;5030569;28;20647;-79
2021/12/17 09:36:51;;;;;;;24.50;22.30;;;5.30;99.90;;;;;;5030741;28;20196;-78
2021/12/17 09:39:18;;;;;;;22.80;20.77;;;5.30;99.90;;;;;;5028092;28;20708;-79
2021/12/17 09:41:50;;;;;;;22.53;20.57;;;5.30;99.90;;;;;;5025123;28;20204;-77
2021/12/17 09:44:18;;;;;;;22.57;20.50;;;5.30;99.90;;;;;;5022452;28;20212;-77
2021/12/17 09:46:49;;;;;;;22.57;20.63;;;5.30;99.90;;;;;;5023630;28;20708;-76
2021/12/17 09:49:18;;;;;;;23.37;21.10;;;5.30;99.90;;;;;;5030459;28;20220;-78
2021/12/17 09:51:46;;;;;;;23.43;21.13;;;5.30;99.90;;;;;;5032290;28;20315;-79
2021/12/17 09:54:14;;;;;;;22.60;20.50;;;5.40;99.90;;;;;;5030799;28;20183;-78
2021/12/17 09:56:41;;;;;;;21.70;19.90;;;5.40;99.90;;;;;;5019060;28;20630;-78
2021/12/17 09:59:08;;;;;;;21.27;19.23;;;5.50;99.90;;;;;;5029098;28;20640;-77
2021/12/17 10:01:37;;;;;;;20.10;18.40;;;5.50;99.90;;;;;;5031979;28;20188;-78
2021/12/17 10:04:20;;;;;;;20.87;19.17;;;5.60;99.90;;;;;;5021981;28;20665;-78
2021/12/17 10:06:50;;;;;;;19.53;17.93;;;5.60;99.90;;;;;;5024721;28;20199;-79
2021/12/17 10:09:17;;;;;;;18.50;17.00;;;5.60;99.90;;;;;;5023645;28;20225;-79
2021/12/17 10:12:04;;;;;;;18.63;17.13;;;5.70;99.90;;;;;;5027875;28;20292;-78
2021/12/17 10:14:32;;;;;;;18.40;16.80;;;5.80;99.90;;;;;;5024319;28;20204;-78
2021/12/17 10:17:10;;;;;;;17.90;16.50;;;5.80;99.90;;;;;;5031757;28;20199;-76
2021/12/17 10:19:49;;;;;;;17.33;16.03;;;5.80;99.90;;;;;;5039914;28;20270;-78
2021/12/17 10:22:18;;;;;;;18.40;17.00;;;5.80;99.90;;;;;;5023379;28;20188;-79
2021/12/17 10:24:56;;;;;;;17.90;16.50;;;5.80;99.90;;;;;;5030880;28;20238;-78
2021/12/17 10:27:26;;;;;;;17.43;16.13;;;5.90;99.90;;;;;;5031453;28;20204;-78
2021/12/17 10:29:54;;;;;;;17.70;16.33;;;5.90;99.90;;;;;;5029646;28;20212;-78
2021/12/17 10:32:23;;;;;;;16.43;15.23;;;6.00;99.90;;;;;;5035301;28;20208;-78
2021/12/17 10:35:06;;;;;;;16.57;15.33;;;6.00;99.90;;;;;;5035678;28;20739;-79
2021/12/17 10:37:35;;;;;;;16.80;15.50;;;6.00;99.90;;;;;;5023998;28;20204;-78
2021/12/17 10:40:15;;;;;;;18.40;16.97;;;6.00;99.90;;;;;;5034301;28;20285;-78
2021/12/17 10:42:50;;;;;;;18.67;17.07;;;6.00;99.90;;;;;;5023867;28;20188;-78
2021/12/17 10:45:25;;;;;;;18.33;16.90;;;6.00;99.90;;;;;;5033964;28;20246;-77
2021/12/17 10:48:02;;;;;;;18.63;17.23;;;6.10;99.90;;;;;;5033985;28;20195;-77
2021/12/17 10:50:31;;;;;;;18.73;17.33;;;6.10;99.90;;;;;;5023334;28;20773;-77
2021/12/17 10:52:58;;;;;;;18.00;16.60;;;6.10;99.90;;;;;;5031917;28;20616;-77
2021/12/17 10:55:26;;;;;;;17.73;16.33;;;6.10;99.90;;;;;;5032880;28;20196;-78
2021/12/17 10:58:02;;;;;;;17.40;16.10;;;6.00;99.90;;;;;;5027970;28;20196;-77
2021/12/17 11:00:29;;;;;;;17.13;15.90;;;6.10;99.90;;;;;;5026969;28;20223;-78
2021/12/17 11:02:56;;;;;;;16.80;15.57;;;6.10;99.90;;;;;;5035252;28;20203;-77
2021/12/17 11:05:24;;;;;;;15.87;14.73;;;6.10;99.90;;;;;;5029931;28;20205;-78
2021/12/17 11:07:53;;;;;;;15.07;14.07;;;6.20;99.90;;;;;;5031250;28;20219;-78
2021/12/17 11:10:31;;;;;;;16.07;14.87;;;6.20;99.90;;;;;;5028925;28;20251;-78
2021/12/17 11:12:58;;;;;;;17.30;15.90;;;6.30;99.90;;;;;;5029773;28;20275;-78
2021/12/17 11:15:27;;;;;;;16.93;15.53;;;6.30;99.90;;;;;;5034300;28;20194;-77
2021/12/17 11:17:55;;;;;;;17.90;16.40;;;6.30;99.90;;;;;;5033289;28;20201;-77
2021/12/17 11:20:25;;;;;;;17.73;16.23;;;6.30;99.90;;;;;;5030812;28;20637;-77
2021/12/17 11:22:55;;;;;;;19.13;17.53;;;6.30;99.90;;;;;;5023600;28;20657;-78
2021/12/17 11:25:24;;;;;;;18.47;17.00;;;6.30;99.90;;;;;;5032640;28;20552;-78
2021/12/17 11:27:53;;;;;;;18.13;16.73;;;6.40;99.90;;;;;;5034455;28;20200;-78
2021/12/17 11:30:23;;;;;;;17.60;16.30;;;6.40;99.90;;;;;;5026800;28;20229;-77
2021/12/17 11:32:51;;;;;;;18.00;16.50;;;6.50;99.90;;;;;;5028160;28;20209;-77
2021/12/17 11:35:21;;;;;;;18.07;16.67;;;6.60;99.90;;;;;;5030708;28;20208;-76
2021/12/17 11:37:51;;;;;;;18.13;16.73;;;6.60;99.90;;;;;;5031491;28;20219;-81
2021/12/17 11:40:25;;;;;;;18.07;16.47;;;6.70;99.90;;;;;;5035807;28;20215;-84
2021/12/17 11:43:15;;;;;;;18.97;17.47;;;6.70;99.90;;;;;;5033327;28;20194;-85
2021/12/17 11:45:42;;;;;;;18.90;17.10;;;6.70;99.90;;;;;;5034833;28;20196;-86
2021/12/17 11:48:18;;;;;;;19.37;17.67;;;6.60;99.90;;;;;;5038371;28;20197;-87
2021/12/17 11:50:46;;;;;;;17.83;16.53;;;6.60;99.90;;;;;;5035082;28;20682;-80
2021/12/17 11:53:19;;;;;;;18.97;17.47;;;6.70;99.90;;;;;;5031511;28;20582;-83
2021/12/17 11:55:48;;;;;;;17.10;15.87;;;6.70;99.90;;;;;;5030359;28;20205;-77
2021/12/17 11:58:35;;;;;;;18.73;17.30;;;6.80;99.90;;;;;;5033289;28;20226;-77
2021/12/17 12:01:03;;;;;;;19.07;17.37;;;6.80;99.90;;;;;;5033407;28;20208;-77
2021/12/17 12:03:31;;;;;;;17.37;15.97;;;6.80;99.90;;;;;;5023942;28;20732;-78
2021/12/17 12:05:59;;;;;;;17.80;16.40;;;6.90;99.90;;;;;;5031808;28;20266;-76
2021/12/17 12:08:31;;;;;;;18.70;17.23;;;7.00;99.90;;;;;;5032807;28;20274;-77
2021/12/17 12:11:22;;;;;;;19.00;17.43;;;7.00;99.90;;;;;;5033645;28;20197;-77
2021/12/17 12:13:50;;;;;;;18.23;16.80;;;7.00;99.90;;;;;;5026707;28;20214;-77
2021/12/17 12:16:21;;;;;;;19.07;17.57;;;7.00;99.90;;;;;;5026210;28;20674;-77
2021/12/17 12:18:50;;;;;;;17.60;16.20;;;7.00;99.90;;;;;;5034017;28;20216;-77
2021/12/17 12:21:18;;;;;;;18.60;17.20;;;7.10;99.90;;;;;;5033426;28;20220;-76
2021/12/17 12:24:11;;;;;;;17.20;15.90;;;7.10;99.90;;;;;;5016814;28;20206;-76
2021/12/17 12:26:41;;;;;;;17.17;15.87;;;7.10;99.90;;;;;;5026649;28;20184;-77
2021/12/17 12:29:16;;;;;;;17.47;16.07;;;7.20;99.90;;;;;;5032745;28;20220;-78
2021/12/17 12:31:59;;;;;;;16.63;15.47;;;7.20;99.90;;;;;;5023824;28;20200;-77
2021/12/17 12:34:44;;;;;;;16.87;15.60;;;7.20;99.90;;;;;;5032193;28;20654;-80
2021/12/17 12:37:28;;;;;;;17.47;16.07;;;7.10;99.90;;;;;;5032470;28;20230;-77
2021/12/17 12:40:17;;;;;;;17.33;16.03;;;7.20;99.90;;;;;;5033438;28;20218;-77
2021/12/17 12:42:55;;;;;;;16.87;15.57;;;7.20;99.90;;;;;;5032529;28;20214;-78
2021/12/17 12:45:23;;;;;;;16.43;15.23;;;7.20;99.90;;;;;;5033136;28;20204;-77
2021/12/17 12:47:57;;;;;;;17.33;16.03;;;7.20;99.90;;;;;;5032877;28;20271;-76
2021/12/17 12:50:27;;;;;;;17.70;16.20;;;7.30;99.90;;;;;;5030400;28;20724;-76
2021/12/17 12:52:56;;;;;;;17.70;16.20;;;7.30;99.90;;;;;;5022738;28;20287;-78
2021/12/17 12:55:27;;;;;;;18.60;17.00;;;7.30;99.90;;;;;;5018079;28;20268;-77
2021/12/17 12:58:03;;;;;;;17.17;15.87;;;7.30;99.90;;;;;;5016833;28;20585;-78
2021/12/17 13:00:33;;;;;;;17.40;16.10;;;7.30;99.90;;;;;;5017477;28;20221;-78
2021/12/17 13:03:02;;;;;;;17.47;16.17;;;7.30;99.90;;;;;;5013360;28;20206;-76
2021/12/17 13:05:31;;;;;;;16.83;15.63;;;7.40;99.90;;;;;;5014709;28;20203;-78
2021/12/17 13:07:59;;;;;;;16.50;15.30;;;7.40;99.90;;;;;;5020549;28;20194;-77
2021/12/17 13:10:29;;;;;;;16.80;15.43;;;7.40;99.90;;;;;;5013295;28;20286;-77
2021/12/17 13:13:08;;;;;;;16.57;15.27;;;7.40;99.90;;;;;;5018165;28;20198;-77
2021/12/17 13:15:43;;;;;;;16.30;15.20;;;7.50;99.90;;;;;;5015759;28;20194;-76
2021/12/17 13:21:06;;;;;;;17.03;15.73;;;7.50;99.90;;;;;;5000949;28;20242;-76
2021/12/17 13:23:38;;;;;;;16.77;15.47;;;7.50;99.90;;;;;;5012989;28;20194;-77
2021/12/17 13:26:08;;;;;;;16.07;14.97;;;7.50;99.90;;;;;;5018609;28;20195;-78
2021/12/17 13:28:52;;;;;;;17.20;15.90;;;7.50;99.90;;;;;;5012690;28;20567;-77
2021/12/17 13:31:37;;;;;;;16.63;15.33;;;7.50;99.90;;;;;;5020900;28;20194;-77
2021/12/17 13:34:09;;;;;;;17.27;15.83;;;7.50;99.90;;;;;;5015051;28;20685;-76
2021/12/17 13:36:37;;;;;;;16.80;15.50;;;7.50;99.90;;;;;;5016784;28;20206;-77
2021/12/17 13:39:06;;;;;;;16.50;15.27;;;7.50;99.90;;;;;;5017049;28;20302;-76
2021/12/17 13:41:41;;;;;;;17.13;15.80;;;7.50;99.90;;;;;;5026634;28;20209;-77
2021/12/17 13:44:32;;;;;;;16.53;15.33;;;7.50;99.90;;;;;;5031164;28;20205;-78
2021/12/17 13:47:25;;;;;;;16.57;15.37;;;7.50;99.90;;;;;;5031316;28;20697;-77
2021/12/17 13:49:54;;;;;;;16.73;15.40;;;7.50;99.90;;;;;;5014878;28;20617;-79
2021/12/17 13:52:24;;;;;;;17.00;15.70;;;7.50;99.90;;;;;;5022734;28;20250;-78
2021/12/17 13:54:52;;;;;;;16.00;14.80;;;7.50;99.90;;;;;;5023017;28;20268;-78
2021/12/17 13:57:22;;;;;;;16.40;15.10;;;7.40;99.90;;;;;;5031197;28;20197;-78
2021/12/17 13:59:50;;;;;;;18.93;17.27;;;7.40;99.90;;;;;;5022395;28;20284;-77
2021/12/17 14:02:19;;;;;;;17.37;15.93;;;7.40;99.90;;;;;;5022758;28;20198;-77
2021/12/17 14:05:00;;;;;;;16.93;15.63;;;7.40;99.90;;;;;;5032123;28;20249;-77
2021/12/17 14:07:29;;;;;;;17.00;15.70;;;7.40;99.90;;;;;;5032049;28;20285;-78
2021/12/17 14:10:01;;;;;;;16.80;15.43;;;7.40;99.90;;;;;;5030772;28;20308;-77
2021/12/17 14:12:32;;;;;;;16.50;15.30;;;7.50;99.90;;;;;;5032092;28;20194;-77
2021/12/17 14:15:02;;;;;;;16.80;15.50;;;7.40;99.90;;;;;;5030950;28;20195;-78
2021/12/17 14:17:35;;;;;;;18.80;17.20;;;7.40;99.90;;;;;;5027613;28;20376;-77
2021/12/17 14:20:07;;;;;;;17.53;16.13;;;7.30;99.90;;;;;;5030107;28;20222;-77
2021/12/17 14:22:36;;;;;;;18.07;16.47;;;7.30;99.90;;;;;;5031104;28;20280;-78
2021/12/17 14:25:28;;;;;;;16.97;15.57;;;7.30;99.90;;;;;;5031512;28;20220;-77
2021/12/17 14:27:57;;;;;;;17.83;16.23;;;7.20;99.90;;;;;;5026255;28;20284;-77
2021/12/17 14:30:28;;;;;;;17.60;16.20;;;7.20;99.90;;;;;;5032296;28;20668;-76
2021/12/17 14:32:56;;;;;;;16.57;15.27;;;7.20;99.90;;;;;;5029929;28;20207;-77
2021/12/17 14:35:47;;;;;;;17.13;15.73;;;7.20;99.90;;;;;;5023436;28;20781;-76
2021/12/17 14:38:18;;;;;;;16.33;15.00;;;7.10;99.90;;;;;;5029416;28;20643;-76
2021/12/17 14:40:54;;;;;;;17.07;15.67;;;7.10;99.90;;;;;;5031062;28;20591;-76
2021/12/17 14:43:24;;;;;;;16.30;15.10;;;7.00;99.90;;;;;;5031083;28;20678;-76
2021/12/17 14:45:56;;;;;;;16.40;15.20;;;7.00;99.90;;;;;;5024373;28;20199;-76
2021/12/17 14:48:32;;;;;;;16.43;15.23;;;6.90;99.90;;;;;;5030855;28;20281;-75
2021/12/17 15:02:47;;;;;;;18.67;17.17;;;6.70;99.90;;;;;;5028080;28;20641;-77
2021/12/17 15:05:15;;;;;;;17.90;16.50;;;6.50;99.90;;;;;;5022021;28;20655;-78
2021/12/17 15:07:42;;;;;;;17.50;16.17;;;6.50;99.90;;;;;;5019514;28;20565;-77
2021/12/17 15:10:11;;;;;;;17.57;16.17;;;6.40;99.90;;;;;;5028602;28;20278;-78
2021/12/17 15:12:38;;;;;;;17.47;16.17;;;6.30;99.90;;;;;;5029334;28;20663;-78
2021/12/17 15:15:09;;;;;;;17.20;15.80;;;6.20;99.90;;;;;;5030692;28;20208;-78
2021/12/17 15:17:37;;;;;;;16.93;15.63;;;6.10;99.90;;;;;;5024153;28;20209;-77
2021/12/17 15:20:06;;;;;;;17.63;16.27;;;6.10;99.90;;;;;;5024053;28;20212;-79
2021/12/17 15:22:33;;;;;;;17.67;16.30;;;6.00;99.90;;;;;;5026974;28;20223;-76
2021/12/17 15:25:00;;;;;;;18.13;16.73;;;6.00;99.90;;;;;;5026099;28;20668;-75
2021/12/17 15:27:29;;;;;;;18.27;16.87;;;6.00;99.90;;;;;;5029760;28;20197;-75
2021/12/17 15:29:56;;;;;;;19.73;18.23;;;6.00;99.90;;;;;;5027516;28;20235;-75
2021/12/17 15:32:23;;;;;;;18.80;17.30;;;5.90;99.90;;;;;;5029870;28;20258;-78
2021/12/17 15:34:52;;;;;;;18.47;16.90;;;5.90;99.90;;;;;;5027004;28;20251;-76
2021/12/17 15:37:19;;;;;;;17.90;16.40;;;6.00;99.90;;;;;;5032055;28;20227;-76